sensor_id;sensor_type;location;lat;lon;timestamp;P1;durP1;ratioP1;P2;durP2;ratioP2
2998;SDS011;1509;51.964;7.628;2024-03-23T00:54:36;3.47;;;2.37;;
2998;SDS011;1509;51.964;7.628;2024-03-23T00:57:01;7.27;;;2.97;;
2998;SDS011;1509;51.964;7.628;2024-03-23T00:59:27;3.63;;;2.47;;
2998;SDS011;1509;51.964;7.628;2024-03-23T01:01:53;4.80;;;2.17;;
2998;SDS011;1509;51.964;7.628;2024-03-23T01:04:19;5.63;;;2.17;;
2998;SDS011;1509;51.964;7.628;2024-03-23T01:06:45;4.23;;;2.60;;
2998;SDS011;1509;51.964;7.628;2024-03-23T01:09:11;11.40;;;2.53;;
2998;SDS011;1509;51.964;7.628;2024-03-23T01:11:37;5.10;;;2.47;;
2998;SDS011;1509;51.964;7.628;2024-03-23T01:14:02;7.83;;;3.03;;
2998;SDS011;1509;51.964;7.628;2024-03-23T01:16:28;4.40;;;2.63;;
2998;SDS011;1509;51.964;7.628;2024-03-23T01:18:54;7.33;;;2.77;;
2998;SDS011;1509;51.964;7.628;2024-03-23T01:21:19;5.73;;;3.27;;
2998;SDS011;1509;51.964;7.628;2024-03-23T01:23:45;7.13;;;2.57;;
2998;SDS011;1509;51.964;7.628;2024-03-23T01:26:10;8.40;;;3.63;;
2998;SDS011;1509;51.964;7.628;2024-03-23T01:28:36;9.40;;;2.83;;
2998;SDS011;1509;51.964;7.628;2024-03-23T01:31:02;7.03;;;3.17;;
2998;SDS011;1509;51.964;7.628;2024-03-23T01:33:27;8.60;;;2.07;;
2998;SDS011;1509;51.964;7.628;2024-03-23T01:35:53;5.13;;;3.07;;
2998;SDS011;1509;51.964;7.628;2024-03-23T01:38:19;8.23;;;3.00;;
2998;SDS011;1509;51.964;7.628;2024-03-23T01:40:44;4.43;;;3.20;;
2998;SDS011;1509;51.964;7.628;2024-03-23T01:43:10;7.00;;;3.00;;
2998;SDS011;1509;51.964;7.628;2024-03-23T01:45:35;4.60;;;2.87;;
2998;SDS011;1509;51.964;7.628;2024-03-23T01:48:01;7.73;;;3.80;;
2998;SDS011;1509;51.964;7.628;2024-03-23T01:50:28;11.43;;;3.47;;
2998;SDS011;1509;51.964;7.628;2024-03-23T01:52:55;5.93;;;3.50;;
2998;SDS011;1509;51.964;7.628;2024-03-23T01:55:21;7.80;;;3.37;;
2998;SDS011;1509;51.964;7.628;2024-03-23T01:57:47;6.97;;;3.17;;
2998;SDS011;1509;51.964;7.628;2024-03-23T02:00:13;6.33;;;3.70;;
2998;SDS011;1509;51.964;7.628;2024-03-23T02:02:43;9.33;;;3.17;;
2998;SDS011;1509;51.964;7.628;2024-03-23T02:05:13;8.70;;;2.93;;
2998;SDS011;1509;51.964;7.628;2024-03-23T02:07:39;7.63;;;3.97;;
2998;SDS011;1509;51.964;7.628;2024-03-23T02:10:06;10.23;;;3.67;;
2998;SDS011;1509;51.964;7.628;2024-03-23T02:12:32;11.50;;;4.83;;
2998;SDS011;1509;51.964;7.628;2024-03-23T02:14:58;11.53;;;3.90;;
2998;SDS011;1509;51.964;7.628;2024-03-23T02:17:24;13.30;;;4.10;;
2998;SDS011;1509;51.964;7.628;2024-03-23T02:19:50;8.97;;;4.17;;
2998;SDS011;1509;51.964;7.628;2024-03-23T02:22:16;13.23;;;4.63;;
2998;SDS011;1509;51.964;7.628;2024-03-23T02:24:42;7.27;;;3.67;;
2998;SDS011;1509;51.964;7.628;2024-03-23T02:27:07;7.37;;;4.37;;
2998;SDS011;1509;51.964;7.628;2024-03-23T02:29:33;7.60;;;4.70;;
2998;SDS011;1509;51.964;7.628;2024-03-23T02:31:59;7.60;;;4.80;;
2998;SDS011;1509;51.964;7.628;2024-03-23T02:34:25;11.57;;;5.07;;
2998;SDS011;1509;51.964;7.628;2024-03-23T02:36:50;10.00;;;5.13;;
2998;SDS011;1509;51.964;7.628;2024-03-23T02:39:16;15.73;;;6.20;;
2998;SDS011;1509;51.964;7.628;2024-03-23T02:41:44;9.03;;;4.57;;
2998;SDS011;1509;51.964;7.628;2024-03-23T02:44:10;13.23;;;5.00;;
2998;SDS011;1509;51.964;7.628;2024-03-23T02:46:37;11.77;;;4.60;;
2998;SDS011;1509;51.964;7.628;2024-03-23T02:49:03;12.00;;;4.53;;
2998;SDS011;1509;51.964;7.628;2024-03-23T02:51:29;14.80;;;5.20;;
2998;SDS011;1509;51.964;7.628;2024-03-23T02:53:55;13.50;;;4.40;;
2998;SDS011;1509;51.964;7.628;2024-03-23T02:56:21;17.83;;;5.37;;
2998;SDS011;1509;51.964;7.628;2024-03-23T02:58:47;9.17;;;4.50;;
2998;SDS011;1509;51.964;7.628;2024-03-23T03:01:12;8.50;;;4.10;;
2998;SDS011;1509;51.964;7.628;2024-03-23T03:03:38;17.87;;;5.33;;
2998;SDS011;1509;51.964;7.628;2024-03-23T03:06:03;14.13;;;4.63;;
2998;SDS011;1509;51.964;7.628;2024-03-23T03:08:29;8.43;;;4.60;;
2998;SDS011;1509;51.964;7.628;2024-03-23T03:10:55;9.63;;;4.33;;
2998;SDS011;1509;51.964;7.628;2024-03-23T03:13:20;8.63;;;4.63;;
2998;SDS011;1509;51.964;7.628;2024-03-23T03:15:46;12.47;;;5.37;;
2998;SDS011;1509;51.964;7.628;2024-03-23T03:18:12;10.50;;;5.07;;
2998;SDS011;1509;51.964;7.628;2024-03-23T03:20:40;10.47;;;5.07;;
2998;SDS011;1509;51.964;7.628;2024-03-23T03:23:06;17.50;;;6.60;;
2998;SDS011;1509;51.964;7.628;2024-03-23T03:25:32;11.23;;;5.00;;
2998;SDS011;1509;51.964;7.628;2024-03-23T03:27:58;10.83;;;4.50;;
2998;SDS011;1509;51.964;7.628;2024-03-23T03:30:24;7.40;;;4.30;;
2998;SDS011;1509;51.964;7.628;2024-03-23T03:32:50;13.63;;;6.30;;
2998;SDS011;1509;51.964;7.628;2024-03-23T03:35:20;13.87;;;6.50;;
2998;SDS011;1509;51.964;7.628;2024-03-23T03:37:48;9.13;;;5.63;;
2998;SDS011;1509;51.964;7.628;2024-03-23T03:40:14;12.57;;;5.67;;
2998;SDS011;1509;51.964;7.628;2024-03-23T03:42:42;18.60;;;6.30;;
2998;SDS011;1509;51.964;7.628;2024-03-23T03:45:08;16.03;;;7.17;;
2998;SDS011;1509;51.964;7.628;2024-03-23T03:47:33;16.10;;;5.97;;
2998;SDS011;1509;51.964;7.628;2024-03-23T03:49:59;13.77;;;5.43;;
2998;SDS011;1509;51.964;7.628;2024-03-23T03:52:25;18.47;;;5.53;;
2998;SDS011;1509;51.964;7.628;2024-03-23T03:54:51;15.50;;;6.90;;
2998;SDS011;1509;51.964;7.628;2024-03-23T03:57:16;16.37;;;6.00;;
2998;SDS011;1509;51.964;7.628;2024-03-23T03:59:42;11.27;;;5.83;;
2998;SDS011;1509;51.964;7.628;2024-03-23T04:02:16;24.73;;;6.83;;
2998;SDS011;1509;51.964;7.628;2024-03-23T04:04:50;10.83;;;6.43;;
2998;SDS011;1509;51.964;7.628;2024-03-23T04:07:22;13.47;;;6.37;;
2998;SDS011;1509;51.964;7.628;2024-03-23T04:09:48;15.43;;;6.23;;
2998;SDS011;1509;51.964;7.628;2024-03-23T04:12:14;17.70;;;10.50;;
2998;SDS011;1509;51.964;7.628;2024-03-23T04:14:40;14.53;;;5.73;;
2998;SDS011;1509;51.964;7.628;2024-03-23T04:17:06;14.40;;;7.20;;
2998;SDS011;1509;51.964;7.628;2024-03-23T04:19:32;12.00;;;6.23;;
2998;SDS011;1509;51.964;7.628;2024-03-23T04:21:57;18.03;;;6.63;;
2998;SDS011;1509;51.964;7.628;2024-03-23T04:24:23;18.17;;;8.00;;
2998;SDS011;1509;51.964;7.628;2024-03-23T04:26:51;15.50;;;7.30;;
2998;SDS011;1509;51.964;7.628;2024-03-23T04:29:16;28.30;;;8.50;;
2998;SDS011;1509;51.964;7.628;2024-03-23T04:31:42;17.37;;;6.80;;
2998;SDS011;1509;51.964;7.628;2024-03-23T04:34:07;14.47;;;7.47;;
2998;SDS011;1509;51.964;7.628;2024-03-23T04:36:33;17.43;;;7.40;;
2998;SDS011;1509;51.964;7.628;2024-03-23T04:38:59;16.73;;;7.77;;
2998;SDS011;1509;51.964;7.628;2024-03-23T04:41:25;15.60;;;6.70;;
2998;SDS011;1509;51.964;7.628;2024-03-23T04:43:51;15.50;;;7.80;;
2998;SDS011;1509;51.964;7.628;2024-03-23T04:46:17;23.37;;;10.00;;
2998;SDS011;1509;51.964;7.628;2024-03-23T04:48:42;17.17;;;7.00;;
2998;SDS011;1509;51.964;7.628;2024-03-23T04:51:09;18.53;;;8.33;;
2998;SDS011;1509;51.964;7.628;2024-03-23T04:53:37;19.03;;;8.90;;
2998;SDS011;1509;51.964;7.628;2024-03-23T04:56:05;24.40;;;9.07;;
2998;SDS011;1509;51.964;7.628;2024-03-23T04:58:31;20.67;;;10.20;;
2998;SDS011;1509;51.964;7.628;2024-03-23T05:00:57;15.47;;;8.43;;
2998;SDS011;1509;51.964;7.628;2024-03-23T05:03:23;24.57;;;10.23;;
2998;SDS011;1509;51.964;7.628;2024-03-23T05:05:50;23.13;;;10.80;;
2998;SDS011;1509;51.964;7.628;2024-03-23T05:08:19;21.37;;;9.40;;
2998;SDS011;1509;51.964;7.628;2024-03-23T05:10:45;17.50;;;9.17;;
2998;SDS011;1509;51.964;7.628;2024-03-23T05:13:11;17.33;;;8.57;;
2998;SDS011;1509;51.964;7.628;2024-03-23T05:15:37;19.90;;;8.70;;
2998;SDS011;1509;51.964;7.628;2024-03-23T05:18:03;21.77;;;9.67;;
2998;SDS011;1509;51.964;7.628;2024-03-23T05:20:30;20.27;;;8.83;;
2998;SDS011;1509;51.964;7.628;2024-03-23T05:22:56;17.83;;;10.33;;
2998;SDS011;1509;51.964;7.628;2024-03-23T05:25:21;29.60;;;9.90;;
2998;SDS011;1509;51.964;7.628;2024-03-23T05:27:47;22.43;;;9.20;;
2998;SDS011;1509;51.964;7.628;2024-03-23T05:30:13;26.00;;;11.90;;
2998;SDS011;1509;51.964;7.628;2024-03-23T05:32:39;24.80;;;10.90;;
2998;SDS011;1509;51.964;7.628;2024-03-23T05:35:08;26.43;;;10.30;;
2998;SDS011;1509;51.964;7.628;2024-03-23T05:37:34;27.30;;;10.77;;
2998;SDS011;1509;51.964;7.628;2024-03-23T05:40:00;19.93;;;10.23;;
2998;SDS011;1509;51.964;7.628;2024-03-23T05:42:26;23.17;;;11.53;;
2998;SDS011;1509;51.964;7.628;2024-03-23T05:44:51;26.20;;;11.87;;
2998;SDS011;1509;51.964;7.628;2024-03-23T05:47:18;21.57;;;11.10;;
2998;SDS011;1509;51.964;7.628;2024-03-23T05:49:45;25.60;;;14.40;;
2998;SDS011;1509;51.964;7.628;2024-03-23T05:52:11;35.30;;;13.87;;
2998;SDS011;1509;51.964;7.628;2024-03-23T05:54:37;22.40;;;13.83;;
2998;SDS011;1509;51.964;7.628;2024-03-23T05:57:03;34.47;;;15.63;;
2998;SDS011;1509;51.964;7.628;2024-03-23T05:59:28;32.70;;;13.83;;
2998;SDS011;1509;51.964;7.628;2024-03-23T06:01:54;30.53;;;13.20;;
2998;SDS011;1509;51.964;7.628;2024-03-23T06:04:20;22.97;;;14.37;;
2998;SDS011;1509;51.964;7.628;2024-03-23T06:06:48;32.43;;;14.37;;
2998;SDS011;1509;51.964;7.628;2024-03-23T06:09:14;31.30;;;14.77;;
2998;SDS011;1509;51.964;7.628;2024-03-23T06:11:42;31.00;;;14.53;;
2998;SDS011;1509;51.964;7.628;2024-03-23T06:14:08;28.83;;;14.73;;
2998;SDS011;1509;51.964;7.628;2024-03-23T06:16:33;34.60;;;15.00;;
2998;SDS011;1509;51.964;7.628;2024-03-23T06:18:59;31.73;;;16.70;;
2998;SDS011;1509;51.964;7.628;2024-03-23T06:21:25;26.43;;;15.67;;
2998;SDS011;1509;51.964;7.628;2024-03-23T06:23:51;31.00;;;14.43;;
2998;SDS011;1509;51.964;7.628;2024-03-23T06:26:20;37.10;;;15.50;;
2998;SDS011;1509;51.964;7.628;2024-03-23T06:28:47;30.27;;;14.93;;
2998;SDS011;1509;51.964;7.628;2024-03-23T06:31:12;25.10;;;14.77;;
2998;SDS011;1509;51.964;7.628;2024-03-23T06:33:41;35.30;;;15.37;;
2998;SDS011;1509;51.964;7.628;2024-03-23T06:36:09;26.90;;;14.33;;
2998;SDS011;1509;51.964;7.628;2024-03-23T06:38:35;30.60;;;13.93;;
2998;SDS011;1509;51.964;7.628;2024-03-23T06:41:04;26.30;;;14.33;;
2998;SDS011;1509;51.964;7.628;2024-03-23T06:43:30;32.37;;;13.60;;
2998;SDS011;1509;51.964;7.628;2024-03-23T06:45:59;21.67;;;12.97;;
2998;SDS011;1509;51.964;7.628;2024-03-23T06:48:29;31.83;;;14.07;;
2998;SDS011;1509;51.964;7.628;2024-03-23T06:50:55;27.20;;;13.03;;
2998;SDS011;1509;51.964;7.628;2024-03-23T06:53:22;26.30;;;13.27;;
2998;SDS011;1509;51.964;7.628;2024-03-23T06:55:51;22.90;;;11.43;;
2998;SDS011;1509;51.964;7.628;2024-03-23T06:58:24;23.70;;;11.70;;
2998;SDS011;1509;51.964;7.628;2024-03-23T07:00:50;19.43;;;10.50;;
2998;SDS011;1509;51.964;7.628;2024-03-23T07:03:18;20.07;;;11.40;;
2998;SDS011;1509;51.964;7.628;2024-03-23T07:05:43;21.90;;;11.13;;
2998;SDS011;1509;51.964;7.628;2024-03-23T07:08:11;25.00;;;11.27;;
2998;SDS011;1509;51.964;7.628;2024-03-23T07:10:39;20.30;;;10.50;;
2998;SDS011;1509;51.964;7.628;2024-03-23T07:13:07;19.80;;;10.87;;
2998;SDS011;1509;51.964;7.628;2024-03-23T07:15:33;15.93;;;10.57;;
2998;SDS011;1509;51.964;7.628;2024-03-23T07:17:59;17.33;;;10.47;;
2998;SDS011;1509;51.964;7.628;2024-03-23T07:20:24;19.73;;;9.53;;
2998;SDS011;1509;51.964;7.628;2024-03-23T07:22:50;14.00;;;8.93;;
2998;SDS011;1509;51.964;7.628;2024-03-23T07:25:16;16.27;;;8.60;;
2998;SDS011;1509;51.964;7.628;2024-03-23T07:27:42;20.60;;;9.30;;
2998;SDS011;1509;51.964;7.628;2024-03-23T07:30:07;18.67;;;9.00;;
2998;SDS011;1509;51.964;7.628;2024-03-23T07:32:33;18.73;;;8.87;;
2998;SDS011;1509;51.964;7.628;2024-03-23T07:35:02;18.50;;;8.67;;
2998;SDS011;1509;51.964;7.628;2024-03-23T07:37:29;18.57;;;8.47;;
2998;SDS011;1509;51.964;7.628;2024-03-23T07:39:54;22.70;;;8.63;;
2998;SDS011;1509;51.964;7.628;2024-03-23T07:42:20;13.60;;;7.40;;
2998;SDS011;1509;51.964;7.628;2024-03-23T07:44:46;20.80;;;7.63;;
2998;SDS011;1509;51.964;7.628;2024-03-23T07:47:11;20.50;;;7.80;;
2998;SDS011;1509;51.964;7.628;2024-03-23T07:49:37;10.40;;;6.00;;
2998;SDS011;1509;51.964;7.628;2024-03-23T07:52:05;11.77;;;6.57;;
2998;SDS011;1509;51.964;7.628;2024-03-23T07:54:30;14.90;;;6.00;;
2998;SDS011;1509;51.964;7.628;2024-03-23T07:56:56;8.47;;;5.97;;
2998;SDS011;1509;51.964;7.628;2024-03-23T07:59:22;11.93;;;5.80;;
2998;SDS011;1509;51.964;7.628;2024-03-23T08:01:48;15.07;;;7.20;;
2998;SDS011;1509;51.964;7.628;2024-03-23T08:04:13;11.63;;;5.10;;
2998;SDS011;1509;51.964;7.628;2024-03-23T08:06:39;13.23;;;6.73;;
2998;SDS011;1509;51.964;7.628;2024-03-23T08:09:04;9.33;;;5.00;;
2998;SDS011;1509;51.964;7.628;2024-03-23T08:11:31;11.70;;;6.10;;
2998;SDS011;1509;51.964;7.628;2024-03-23T08:13:59;11.07;;;4.20;;
2998;SDS011;1509;51.964;7.628;2024-03-23T08:16:26;9.57;;;4.63;;
2998;SDS011;1509;51.964;7.628;2024-03-23T08:18:52;12.27;;;4.27;;
2998;SDS011;1509;51.964;7.628;2024-03-23T08:21:18;8.83;;;4.27;;
2998;SDS011;1509;51.964;7.628;2024-03-23T08:23:44;10.83;;;4.40;;
2998;SDS011;1509;51.964;7.628;2024-03-23T08:26:11;13.20;;;4.80;;
2998;SDS011;1509;51.964;7.628;2024-03-23T08:28:38;11.00;;;5.07;;
2998;SDS011;1509;51.964;7.628;2024-03-23T08:31:07;11.10;;;4.87;;
2998;SDS011;1509;51.964;7.628;2024-03-23T08:33:34;16.03;;;4.30;;
2998;SDS011;1509;51.964;7.628;2024-03-23T08:36:00;7.53;;;3.53;;
2998;SDS011;1509;51.964;7.628;2024-03-23T08:38:27;15.53;;;3.80;;
2998;SDS011;1509;51.964;7.628;2024-03-23T08:41:11;8.93;;;3.50;;
2998;SDS011;1509;51.964;7.628;2024-03-23T08:43:38;8.57;;;3.47;;
2998;SDS011;1509;51.964;7.628;2024-03-23T08:46:08;7.20;;;3.60;;
2998;SDS011;1509;51.964;7.628;2024-03-23T08:48:35;5.60;;;3.30;;
2998;SDS011;1509;51.964;7.628;2024-03-23T08:51:09;8.97;;;3.43;;
2998;SDS011;1509;51.964;7.628;2024-03-23T08:53:36;6.70;;;3.30;;
2998;SDS011;1509;51.964;7.628;2024-03-23T08:56:03;6.47;;;2.50;;
2998;SDS011;1509;51.964;7.628;2024-03-23T08:58:30;7.80;;;3.73;;
2998;SDS011;1509;51.964;7.628;2024-03-23T09:00:57;9.60;;;3.50;;
2998;SDS011;1509;51.964;7.628;2024-03-23T09:03:28;5.23;;;3.30;;
2998;SDS011;1509;51.964;7.628;2024-03-23T09:05:54;11.60;;;3.53;;
2998;SDS011;1509;51.964;7.628;2024-03-23T09:08:20;9.07;;;3.50;;
2998;SDS011;1509;51.964;7.628;2024-03-23T09:10:47;7.70;;;3.60;;
2998;SDS011;1509;51.964;7.628;2024-03-23T09:13:13;7.17;;;3.67;;
2998;SDS011;1509;51.964;7.628;2024-03-23T09:15:45;12.83;;;4.10;;
2998;SDS011;1509;51.964;7.628;2024-03-23T09:18:12;5.50;;;4.07;;
2998;SDS011;1509;51.964;7.628;2024-03-23T09:20:38;7.47;;;3.83;;
2998;SDS011;1509;51.964;7.628;2024-03-23T09:23:04;7.20;;;4.30;;
2998;SDS011;1509;51.964;7.628;2024-03-23T09:25:29;10.30;;;4.90;;
2998;SDS011;1509;51.964;7.628;2024-03-23T09:27:55;10.43;;;4.30;;
2998;SDS011;1509;51.964;7.628;2024-03-23T09:30:20;11.30;;;5.00;;
2998;SDS011;1509;51.964;7.628;2024-03-23T09:32:46;9.53;;;3.93;;
2998;SDS011;1509;51.964;7.628;2024-03-23T09:35:12;7.63;;;3.57;;
2998;SDS011;1509;51.964;7.628;2024-03-23T09:37:38;6.73;;;3.77;;
2998;SDS011;1509;51.964;7.628;2024-03-23T09:40:09;4.40;;;3.70;;
2998;SDS011;1509;51.964;7.628;2024-03-23T09:42:36;6.63;;;3.47;;
2998;SDS011;1509;51.964;7.628;2024-03-23T09:45:02;8.13;;;3.93;;
2998;SDS011;1509;51.964;7.628;2024-03-23T09:47:30;5.00;;;2.80;;
2998;SDS011;1509;51.964;7.628;2024-03-23T09:49:57;9.10;;;4.77;;
2998;SDS011;1509;51.964;7.628;2024-03-23T09:52:23;7.60;;;3.70;;
2998;SDS011;1509;51.964;7.628;2024-03-23T09:54:48;8.70;;;3.57;;
2998;SDS011;1509;51.964;7.628;2024-03-23T09:57:14;5.23;;;3.50;;
2998;SDS011;1509;51.964;7.628;2024-03-23T09:59:40;12.00;;;3.90;;
2998;SDS011;1509;51.964;7.628;2024-03-23T10:02:05;6.30;;;3.50;;
2998;SDS011;1509;51.964;7.628;2024-03-23T10:04:41;5.33;;;3.50;;
2998;SDS011;1509;51.964;7.628;2024-03-23T10:07:11;8.83;;;3.13;;
2998;SDS011;1509;51.964;7.628;2024-03-23T10:09:38;5.53;;;2.97;;
2998;SDS011;1509;51.964;7.628;2024-03-23T10:12:16;5.60;;;3.00;;
2998;SDS011;1509;51.964;7.628;2024-03-23T10:14:43;11.80;;;3.87;;
2998;SDS011;1509;51.964;7.628;2024-03-23T10:19:45;3.60;;;2.83;;
2998;SDS011;1509;51.964;7.628;2024-03-23T10:22:14;6.40;;;3.20;;
2998;SDS011;1509;51.964;7.628;2024-03-23T10:24:48;5.23;;;3.30;;
2998;SDS011;1509;51.964;7.628;2024-03-23T10:27:20;5.97;;;2.93;;
2998;SDS011;1509;51.964;7.628;2024-03-23T10:29:46;6.00;;;3.00;;
2998;SDS011;1509;51.964;7.628;2024-03-23T10:32:13;4.13;;;2.13;;
2998;SDS011;1509;51.964;7.628;2024-03-23T10:34:39;7.27;;;3.23;;
2998;SDS011;1509;51.964;7.628;2024-03-23T10:37:06;7.00;;;3.03;;
2998;SDS011;1509;51.964;7.628;2024-03-23T10:39:33;7.50;;;3.60;;
2998;SDS011;1509;51.964;7.628;2024-03-23T10:42:03;4.67;;;3.00;;
2998;SDS011;1509;51.964;7.628;2024-03-23T10:44:30;4.87;;;2.63;;
2998;SDS011;1509;51.964;7.628;2024-03-23T10:46:59;6.83;;;2.80;;
2998;SDS011;1509;51.964;7.628;2024-03-23T10:49:31;6.20;;;2.63;;
2998;SDS011;1509;51.964;7.628;2024-03-23T10:52:04;4.17;;;2.80;;
2998;SDS011;1509;51.964;7.628;2024-03-23T10:54:31;9.30;;;2.30;;
2998;SDS011;1509;51.964;7.628;2024-03-23T10:57:11;5.23;;;2.10;;
2998;SDS011;1509;51.964;7.628;2024-03-23T10:59:42;3.10;;;1.80;;
2998;SDS011;1509;51.964;7.628;2024-03-23T11:02:09;4.30;;;3.10;;
2998;SDS011;1509;51.964;7.628;2024-03-23T11:04:44;9.87;;;2.50;;
2998;SDS011;1509;51.964;7.628;2024-03-23T11:07:31;10.13;;;2.43;;
2998;SDS011;1509;51.964;7.628;2024-03-23T11:09:58;7.83;;;2.63;;
2998;SDS011;1509;51.964;7.628;2024-03-23T11:14:52;4.13;;;2.47;;
2998;SDS011;1509;51.964;7.628;2024-03-23T11:17:22;4.60;;;2.30;;
2998;SDS011;1509;51.964;7.628;2024-03-23T11:20:01;6.23;;;2.47;;
2998;SDS011;1509;51.964;7.628;2024-03-23T11:25:16;4.67;;;2.00;;
2998;SDS011;1509;51.964;7.628;2024-03-23T11:27:42;7.37;;;2.53;;
2998;SDS011;1509;51.964;7.628;2024-03-23T11:30:15;4.30;;;2.70;;
2998;SDS011;1509;51.964;7.628;2024-03-23T11:32:47;2.50;;;1.13;;
2998;SDS011;1509;51.964;7.628;2024-03-23T11:35:30;3.03;;;1.50;;
2998;SDS011;1509;51.964;7.628;2024-03-23T11:38:08;2.90;;;1.60;;
2998;SDS011;1509;51.964;7.628;2024-03-23T11:40:35;3.37;;;2.00;;
2998;SDS011;1509;51.964;7.628;2024-03-23T11:43:14;3.10;;;1.63;;
2998;SDS011;1509;51.964;7.628;2024-03-23T11:45:50;5.07;;;2.10;;
2998;SDS011;1509;51.964;7.628;2024-03-23T11:48:18;2.93;;;2.47;;
2998;SDS011;1509;51.964;7.628;2024-03-23T11:50:46;7.77;;;3.40;;
2998;SDS011;1509;51.964;7.628;2024-03-23T11:53:18;7.07;;;2.33;;
2998;SDS011;1509;51.964;7.628;2024-03-23T11:55:46;3.70;;;2.50;;
2998;SDS011;1509;51.964;7.628;2024-03-23T11:58:14;5.77;;;3.00;;
2998;SDS011;1509;51.964;7.628;2024-03-23T12:00:48;4.07;;;2.03;;
2998;SDS011;1509;51.964;7.628;2024-03-23T12:03:16;7.47;;;3.17;;
2998;SDS011;1509;51.964;7.628;2024-03-23T12:05:46;4.33;;;2.87;;
2998;SDS011;1509;51.964;7.628;2024-03-23T12:08:17;6.77;;;2.53;;
2998;SDS011;1509;51.964;7.628;2024-03-23T12:10:49;2.90;;;2.13;;
2998;SDS011;1509;51.964;7.628;2024-03-23T12:13:19;8.07;;;2.97;;
2998;SDS011;1509;51.964;7.628;2024-03-23T12:15:49;7.37;;;2.47;;
2998;SDS011;1509;51.964;7.628;2024-03-23T12:18:16;3.30;;;2.40;;
2998;SDS011;1509;51.964;7.628;2024-03-23T12:20:42;2.47;;;2.27;;
2998;SDS011;1509;51.964;7.628;2024-03-23T12:23:11;4.67;;;2.67;;
2998;SDS011;1509;51.964;7.628;2024-03-23T12:25:40;9.97;;;2.47;;
2998;SDS011;1509;51.964;7.628;2024-03-23T12:28:06;5.17;;;3.77;;
2998;SDS011;1509;51.964;7.628;2024-03-23T12:30:35;4.50;;;2.17;;
2998;SDS011;1509;51.964;7.628;2024-03-23T12:33:03;1.87;;;1.47;;
2998;SDS011;1509;51.964;7.628;2024-03-23T12:35:29;4.23;;;1.70;;
2998;SDS011;1509;51.964;7.628;2024-03-23T12:37:55;4.90;;;1.73;;
2998;SDS011;1509;51.964;7.628;2024-03-23T12:40:21;3.40;;;1.87;;
2998;SDS011;1509;51.964;7.628;2024-03-23T12:42:46;2.10;;;1.30;;
2998;SDS011;1509;51.964;7.628;2024-03-23T12:45:12;3.60;;;2.00;;
2998;SDS011;1509;51.964;7.628;2024-03-23T12:47:38;3.97;;;1.63;;
2998;SDS011;1509;51.964;7.628;2024-03-23T12:50:03;3.73;;;1.80;;
2998;SDS011;1509;51.964;7.628;2024-03-23T12:52:32;2.70;;;1.80;;
2998;SDS011;1509;51.964;7.628;2024-03-23T12:54:58;2.50;;;1.37;;
2998;SDS011;1509;51.964;7.628;2024-03-23T12:57:24;2.87;;;1.90;;
2998;SDS011;1509;51.964;7.628;2024-03-23T12:59:53;2.70;;;2.10;;
2998;SDS011;1509;51.964;7.628;2024-03-23T13:02:22;6.83;;;2.43;;
2998;SDS011;1509;51.964;7.628;2024-03-23T13:04:51;5.40;;;2.60;;
2998;SDS011;1509;51.964;7.628;2024-03-23T13:07:18;5.60;;;1.90;;
2998;SDS011;1509;51.964;7.628;2024-03-23T13:09:44;5.20;;;2.40;;
2998;SDS011;1509;51.964;7.628;2024-03-23T13:12:10;3.00;;;2.17;;
2998;SDS011;1509;51.964;7.628;2024-03-23T13:14:39;4.07;;;3.10;;
2998;SDS011;1509;51.964;7.628;2024-03-23T13:17:05;4.17;;;2.23;;
2998;SDS011;1509;51.964;7.628;2024-03-23T13:19:31;2.13;;;1.80;;
2998;SDS011;1509;51.964;7.628;2024-03-23T13:21:58;4.80;;;2.47;;
2998;SDS011;1509;51.964;7.628;2024-03-23T13:24:25;7.73;;;2.40;;
2998;SDS011;1509;51.964;7.628;2024-03-23T13:26:52;3.97;;;2.43;;
2998;SDS011;1509;51.964;7.628;2024-03-23T13:29:18;6.10;;;2.67;;
2998;SDS011;1509;51.964;7.628;2024-03-23T13:31:44;2.67;;;2.37;;
2998;SDS011;1509;51.964;7.628;2024-03-23T13:34:10;4.63;;;2.20;;
2998;SDS011;1509;51.964;7.628;2024-03-23T13:36:36;6.17;;;2.30;;
2998;SDS011;1509;51.964;7.628;2024-03-23T13:39:02;4.17;;;2.17;;
2998;SDS011;1509;51.964;7.628;2024-03-23T13:41:36;3.90;;;2.03;;
2998;SDS011;1509;51.964;7.628;2024-03-23T13:44:11;1.80;;;1.17;;
2998;SDS011;1509;51.964;7.628;2024-03-23T13:46:38;5.27;;;1.37;;
2998;SDS011;1509;51.964;7.628;2024-03-23T13:49:05;2.43;;;1.30;;
2998;SDS011;1509;51.964;7.628;2024-03-23T13:51:31;5.40;;;1.50;;
2998;SDS011;1509;51.964;7.628;2024-03-23T13:54:00;2.43;;;1.60;;
2998;SDS011;1509;51.964;7.628;2024-03-23T13:56:26;2.67;;;1.30;;
2998;SDS011;1509;51.964;7.628;2024-03-23T13:58:53;2.27;;;1.30;;
2998;SDS011;1509;51.964;7.628;2024-03-23T14:01:20;3.63;;;1.57;;
2998;SDS011;1509;51.964;7.628;2024-03-23T14:03:46;5.57;;;2.40;;
2998;SDS011;1509;51.964;7.628;2024-03-23T14:06:11;5.53;;;2.00;;
2998;SDS011;1509;51.964;7.628;2024-03-23T14:08:37;3.50;;;1.70;;
2998;SDS011;1509;51.964;7.628;2024-03-23T14:11:07;4.10;;;1.50;;
2998;SDS011;1509;51.964;7.628;2024-03-23T14:13:35;2.37;;;2.17;;
2998;SDS011;1509;51.964;7.628;2024-03-23T14:16:01;4.50;;;1.63;;
2998;SDS011;1509;51.964;7.628;2024-03-23T14:18:27;3.30;;;1.90;;
2998;SDS011;1509;51.964;7.628;2024-03-23T14:20:56;3.40;;;2.10;;
2998;SDS011;1509;51.964;7.628;2024-03-23T14:23:26;3.17;;;2.37;;
2998;SDS011;1509;51.964;7.628;2024-03-23T14:25:54;2.80;;;1.60;;
2998;SDS011;1509;51.964;7.628;2024-03-23T14:28:21;4.17;;;2.30;;
2998;SDS011;1509;51.964;7.628;2024-03-23T14:30:48;3.90;;;1.53;;
2998;SDS011;1509;51.964;7.628;2024-03-23T14:33:14;3.50;;;1.80;;
2998;SDS011;1509;51.964;7.628;2024-03-23T14:35:41;3.83;;;1.60;;
2998;SDS011;1509;51.964;7.628;2024-03-23T14:38:06;2.83;;;1.63;;
2998;SDS011;1509;51.964;7.628;2024-03-23T14:40:32;3.00;;;1.63;;
2998;SDS011;1509;51.964;7.628;2024-03-23T14:42:58;3.37;;;1.60;;
2998;SDS011;1509;51.964;7.628;2024-03-23T14:45:23;4.33;;;2.07;;
2998;SDS011;1509;51.964;7.628;2024-03-23T14:47:52;2.70;;;1.63;;
2998;SDS011;1509;51.964;7.628;2024-03-23T14:50:18;3.27;;;1.50;;
2998;SDS011;1509;51.964;7.628;2024-03-23T14:52:47;4.50;;;1.80;;
2998;SDS011;1509;51.964;7.628;2024-03-23T14:55:12;3.60;;;1.70;;
2998;SDS011;1509;51.964;7.628;2024-03-23T14:57:38;3.87;;;1.73;;
2998;SDS011;1509;51.964;7.628;2024-03-23T15:00:07;3.60;;;2.33;;
2998;SDS011;1509;51.964;7.628;2024-03-23T15:02:35;3.87;;;2.17;;
2998;SDS011;1509;51.964;7.628;2024-03-23T15:05:07;7.07;;;2.17;;
2998;SDS011;1509;51.964;7.628;2024-03-23T15:07:35;4.57;;;2.00;;
2998;SDS011;1509;51.964;7.628;2024-03-23T15:10:03;2.70;;;1.80;;
2998;SDS011;1509;51.964;7.628;2024-03-23T15:12:30;4.17;;;2.30;;
2998;SDS011;1509;51.964;7.628;2024-03-23T15:14:58;6.70;;;1.97;;
2998;SDS011;1509;51.964;7.628;2024-03-23T15:17:25;2.43;;;1.63;;
2998;SDS011;1509;51.964;7.628;2024-03-23T15:19:50;2.00;;;1.40;;
2998;SDS011;1509;51.964;7.628;2024-03-23T15:22:16;4.43;;;1.57;;
2998;SDS011;1509;51.964;7.628;2024-03-23T15:24:42;4.40;;;1.70;;
2998;SDS011;1509;51.964;7.628;2024-03-23T15:27:07;4.83;;;2.00;;
2998;SDS011;1509;51.964;7.628;2024-03-23T15:29:34;2.83;;;1.73;;
2998;SDS011;1509;51.964;7.628;2024-03-23T15:32:00;2.83;;;1.97;;
2998;SDS011;1509;51.964;7.628;2024-03-23T15:34:26;5.17;;;1.70;;
2998;SDS011;1509;51.964;7.628;2024-03-23T15:36:52;6.03;;;2.57;;
2998;SDS011;1509;51.964;7.628;2024-03-23T15:39:17;4.57;;;1.70;;
2998;SDS011;1509;51.964;7.628;2024-03-23T15:41:44;2.53;;;1.43;;
2998;SDS011;1509;51.964;7.628;2024-03-23T15:44:10;10.13;;;1.60;;
2998;SDS011;1509;51.964;7.628;2024-03-23T15:46:36;3.93;;;1.70;;
2998;SDS011;1509;51.964;7.628;2024-03-23T15:49:01;3.70;;;2.13;;
2998;SDS011;1509;51.964;7.628;2024-03-23T15:51:27;6.33;;;2.03;;
2998;SDS011;1509;51.964;7.628;2024-03-23T15:53:57;5.77;;;2.90;;
2998;SDS011;1509;51.964;7.628;2024-03-23T15:56:26;6.33;;;1.97;;
2998;SDS011;1509;51.964;7.628;2024-03-23T15:58:54;2.50;;;1.70;;
2998;SDS011;1509;51.964;7.628;2024-03-23T16:01:30;6.50;;;2.47;;
2998;SDS011;1509;51.964;7.628;2024-03-23T16:03:57;5.17;;;1.90;;
2998;SDS011;1509;51.964;7.628;2024-03-23T16:06:23;4.07;;;1.90;;
2998;SDS011;1509;51.964;7.628;2024-03-23T16:08:48;7.67;;;2.37;;